createdAt,value
2019-03-16T00:02:01.160Z,7.20
2019-03-16T00:04:29.978Z,7.10
2019-03-16T00:06:58.797Z,7.10
2019-03-16T00:09:27.671Z,7.20
2019-03-16T00:11:56.546Z,7.20
2019-03-16T00:14:25.420Z,7.20
2019-03-16T00:16:54.305Z,7.10
2019-03-16T00:19:23.265Z,7.20
2019-03-16T00:21:52.095Z,7.20
2019-03-16T00:24:21.037Z,7.10
2019-03-16T00:26:49.893Z,7.10
2019-03-16T00:29:18.832Z,7.00
2019-03-16T00:31:47.630Z,7.10
2019-03-16T00:34:16.450Z,7.00
2019-03-16T00:36:45.428Z,7.00
2019-03-16T00:39:14.372Z,6.90
2019-03-16T00:41:43.188Z,7.00
2019-03-16T00:44:12.148Z,7.10
2019-03-16T00:46:40.973Z,7.10
2019-03-16T00:49:09.817Z,7.00
2019-03-16T00:51:38.695Z,7.10
2019-03-16T00:54:07.577Z,7.10
2019-03-16T00:56:36.449Z,7.10
2019-03-16T00:59:05.317Z,7.10
2019-03-16T01:01:34.257Z,7.10
2019-03-16T01:04:03.183Z,7.10
2019-03-16T01:06:32.056Z,7.10
2019-03-16T01:09:01.086Z,7.10
2019-03-16T01:11:29.905Z,7.00
2019-03-16T01:13:58.814Z,7.00
2019-03-16T01:16:27.660Z,6.80
2019-03-16T01:18:56.566Z,6.70
2019-03-16T01:21:25.384Z,6.70
2019-03-16T01:23:54.428Z,6.80
2019-03-16T01:26:23.275Z,6.80
2019-03-16T01:28:52.095Z,6.70
2019-03-16T01:31:20.929Z,6.60
2019-03-16T01:33:49.869Z,6.60
2019-03-16T01:36:18.725Z,6.60
2019-03-16T01:38:47.657Z,6.60
2019-03-16T01:41:16.488Z,6.60
2019-03-16T01:43:45.321Z,6.60
2019-03-16T01:46:14.250Z,6.60
2019-03-16T01:48:43.187Z,6.70
2019-03-16T01:51:13.265Z,6.70
2019-03-16T01:53:42.089Z,6.80
2019-03-16T01:56:10.950Z,6.80
2019-03-16T01:58:39.872Z,6.70
2019-03-16T02:01:09.043Z,6.80
2019-03-16T02:03:37.997Z,6.80
2019-03-16T02:06:06.918Z,6.80
2019-03-16T02:08:35.758Z,6.90
2019-03-16T02:11:04.655Z,6.90
2019-03-16T02:13:33.517Z,6.90
2019-03-16T02:16:10.874Z,6.90
2019-03-16T02:18:32.927Z,6.80
2019-03-16T02:21:01.781Z,6.80
2019-03-16T02:23:30.654Z,6.80
2019-03-16T02:25:59.488Z,6.70
2019-03-16T02:28:28.360Z,6.70
2019-03-16T02:30:57.249Z,6.70
2019-03-16T02:33:26.116Z,6.60
2019-03-16T02:35:54.927Z,6.70
2019-03-16T02:38:23.746Z,6.60
2019-03-16T02:40:52.585Z,6.70
2019-03-16T02:43:21.478Z,6.70
2019-03-16T02:45:50.291Z,6.70
2019-03-16T02:48:19.105Z,6.60
2019-03-16T02:50:48.050Z,6.60
2019-03-16T02:53:16.880Z,6.70
2019-03-16T02:55:45.919Z,6.70
2019-03-16T02:58:14.857Z,6.70
2019-03-16T03:00:43.728Z,6.70
2019-03-16T03:03:28.070Z,6.70
2019-03-16T03:05:43.248Z,6.70
2019-03-16T03:08:12.111Z,6.70
2019-03-16T03:10:40.997Z,6.70
2019-03-16T03:13:13.342Z,6.70
2019-03-16T03:15:40.733Z,6.70
2019-03-16T03:18:09.614Z,6.60
2019-03-16T03:20:38.508Z,6.60
2019-03-16T03:23:07.473Z,6.50
2019-03-16T03:25:36.400Z,6.50
2019-03-16T03:28:05.361Z,6.30
2019-03-16T03:30:34.362Z,6.30
2019-03-16T03:33:03.185Z,6.10
2019-03-16T03:35:32.043Z,5.90
2019-03-16T03:38:00.907Z,5.90
2019-03-16T03:40:29.720Z,5.90
2019-03-16T03:42:58.673Z,5.90
2019-03-16T03:45:27.640Z,5.90
2019-03-16T03:47:56.529Z,5.70
2019-03-16T03:50:25.421Z,5.60
2019-03-16T03:52:54.269Z,5.50
2019-03-16T03:55:23.299Z,5.50
2019-03-16T03:57:52.198Z,5.60
2019-03-16T04:00:21.156Z,5.70
2019-03-16T04:02:50.101Z,5.70
2019-03-16T04:05:19.082Z,5.70
2019-03-16T04:07:47.997Z,5.70
2019-03-16T04:10:16.998Z,5.60
2019-03-16T04:12:45.928Z,5.70
2019-03-16T04:15:15.102Z,5.80
2019-03-16T04:17:44.041Z,5.80
2019-03-16T04:20:13.192Z,5.90
2019-03-16T04:22:42.152Z,6.10
2019-03-16T04:25:11.298Z,6.10
2019-03-16T04:27:40.219Z,6.10
2019-03-16T04:30:09.171Z,6.10
2019-03-16T04:32:38.194Z,6.20
2019-03-16T04:35:07.067Z,6.20
2019-03-16T04:37:35.953Z,6.30
2019-03-16T04:40:05.224Z,6.20
2019-03-16T04:42:34.091Z,6.20
2019-03-16T04:45:02.884Z,6.30
2019-03-16T04:47:31.728Z,6.30
2019-03-16T04:50:00.592Z,6.20
2019-03-16T04:52:29.450Z,6.20
2019-03-16T04:54:58.348Z,6.30
2019-03-16T04:57:27.313Z,6.30
2019-03-16T04:59:56.213Z,6.40
2019-03-16T05:02:25.109Z,6.40
2019-03-16T05:05:06.078Z,6.40
2019-03-16T05:07:46.899Z,6.30
2019-03-16T05:10:27.729Z,6.40
2019-03-16T05:13:08.980Z,6.40
2019-03-16T05:15:51.066Z,6.50
2019-03-16T05:18:32.585Z,6.50
2019-03-16T05:21:13.552Z,6.50
2019-03-16T05:23:54.409Z,6.50
2019-03-16T05:26:35.037Z,6.60
2019-03-16T05:29:15.740Z,6.60
2019-03-16T05:31:56.625Z,6.60
2019-03-16T05:34:37.575Z,6.60
2019-03-16T05:37:18.451Z,6.60
2019-03-16T05:39:59.238Z,6.70
2019-03-16T05:42:40.141Z,6.70
2019-03-16T05:45:20.944Z,6.70
2019-03-16T05:48:01.777Z,6.70
2019-03-16T05:50:43.095Z,6.80
2019-03-16T05:53:23.602Z,6.80
2019-03-16T05:56:04.459Z,6.80
2019-03-16T05:58:45.524Z,6.80
2019-03-16T06:01:26.627Z,6.70
2019-03-16T06:04:07.453Z,6.90
2019-03-16T06:06:48.272Z,6.90
2019-03-16T06:09:29.165Z,6.90
2019-03-16T06:12:10.169Z,6.90
2019-03-16T06:14:50.916Z,7.00
2019-03-16T06:17:31.573Z,7.00
2019-03-16T06:20:12.308Z,7.10
2019-03-16T06:22:41.128Z,7.10
2019-03-16T06:25:29.254Z,7.00
2019-03-16T06:28:17.298Z,7.10
2019-03-16T06:31:05.317Z,7.10
2019-03-16T06:33:53.394Z,7.20
2019-03-16T06:36:41.445Z,7.20
2019-03-16T06:39:29.517Z,7.20
2019-03-16T06:42:17.593Z,7.20
2019-03-16T06:47:54.736Z,7.20
2019-03-16T06:50:43.116Z,7.30
2019-03-16T06:53:31.163Z,7.30
2019-03-16T06:56:19.292Z,7.40
2019-03-16T06:59:07.383Z,7.50
2019-03-16T07:01:55.494Z,7.60
2019-03-16T07:04:43.615Z,7.70
2019-03-16T07:07:24.233Z,7.70
2019-03-16T07:10:04.845Z,7.70
2019-03-16T07:12:45.643Z,7.80
2019-03-16T07:15:26.433Z,7.70
2019-03-16T07:18:08.737Z,7.70
2019-03-16T07:20:49.263Z,7.80
2019-03-16T07:23:31.633Z,7.70
2019-03-16T07:26:15.070Z,7.80
2019-03-16T07:28:55.243Z,7.90
2019-03-16T07:31:38.204Z,7.90
2019-03-16T07:34:18.823Z,7.90
2019-03-16T07:36:59.555Z,8.00
2019-03-16T07:39:28.794Z,8.00
2019-03-16T07:42:16.932Z,8.10
2019-03-16T07:45:08.601Z,8.20
2019-03-16T07:47:55.126Z,8.00
2019-03-16T07:50:43.308Z,8.10
2019-03-16T07:53:50.971Z,8.10
2019-03-16T07:57:16.142Z,8.00
2019-03-16T08:03:05.079Z,7.90
2019-03-16T08:05:53.170Z,7.70
2019-03-16T08:08:34.268Z,7.70
2019-03-16T08:11:15.228Z,7.70
2019-03-16T08:13:55.991Z,7.70
2019-03-16T08:19:45.158Z,7.60
2019-03-16T08:22:25.878Z,7.50
2019-03-16T08:25:07.331Z,7.40
2019-03-16T08:27:53.978Z,7.50
2019-03-16T08:30:18.987Z,7.50
2019-03-16T08:32:48.042Z,7.70
2019-03-16T08:35:36.188Z,7.60
2019-03-16T08:38:24.323Z,7.80
2019-03-16T08:41:12.474Z,7.90
2019-03-16T08:43:41.522Z,7.60
2019-03-16T08:46:29.733Z,7.40
2019-03-16T08:49:17.930Z,7.50
2019-03-16T08:52:06.113Z,7.40
2019-03-16T08:54:54.407Z,7.50
2019-03-16T08:57:42.472Z,7.50
2019-03-16T09:00:30.654Z,7.50
2019-03-16T09:03:43.583Z,7.30
2019-03-16T09:06:27.950Z,7.20
2019-03-16T09:09:16.114Z,7.00
2019-03-16T09:11:58.298Z,7.10
2019-03-16T09:14:39.466Z,7.20
2019-03-16T09:17:20.382Z,6.90
2019-03-16T09:20:03.815Z,7.10
2019-03-16T09:22:44.684Z,7.00
2019-03-16T09:25:25.298Z,7.00
2019-03-16T09:28:17.816Z,7.00
2019-03-16T09:30:48.782Z,7.00
2019-03-16T09:33:28.181Z,7.00
2019-03-16T09:36:16.389Z,7.00
2019-03-16T09:39:06.297Z,7.00
2019-03-16T09:41:55.119Z,7.40
2019-03-16T09:44:33.860Z,7.40
2019-03-16T09:47:22.453Z,7.50
2019-03-16T09:50:10.926Z,7.60
2019-03-16T09:52:51.961Z,7.60
2019-03-16T09:55:35.037Z,7.60
2019-03-16T09:58:15.329Z,7.50
2019-03-16T10:00:56.013Z,7.50
2019-03-16T10:03:36.772Z,7.40
2019-03-16T10:06:17.552Z,7.50
2019-03-16T10:08:58.358Z,7.40
2019-03-16T10:11:38.911Z,7.50
2019-03-16T10:14:21.414Z,7.60
2019-03-16T10:17:03.404Z,7.60
2019-03-16T10:19:44.161Z,7.60
2019-03-16T10:22:13.162Z,7.60
2019-03-16T10:25:01.280Z,7.60
2019-03-16T10:27:49.427Z,7.50
2019-03-16T10:30:37.585Z,7.20
2019-03-16T10:33:25.662Z,7.20
2019-03-16T10:36:13.781Z,7.20
2019-03-16T10:39:01.845Z,7.20
2019-03-16T10:41:49.982Z,7.10
2019-03-16T10:44:38.115Z,7.20
2019-03-16T10:47:07.502Z,7.00
2019-03-16T10:49:55.574Z,6.90
2019-03-16T10:52:43.626Z,7.00
2019-03-16T10:58:19.547Z,7.00
2019-03-16T11:01:07.829Z,7.00
2019-03-16T11:03:55.936Z,7.00
2019-03-16T11:06:44.053Z,7.00
2019-03-16T11:09:32.252Z,7.20
2019-03-16T11:12:20.374Z,7.10
2019-03-16T11:15:01.246Z,7.10
2019-03-16T11:17:41.721Z,7.10
2019-03-16T11:20:22.949Z,7.10
2019-03-16T11:23:03.436Z,7.30
2019-03-16T11:25:44.151Z,7.10
2019-03-16T11:28:24.602Z,7.10
2019-03-16T11:31:05.328Z,7.10
2019-03-16T11:33:48.210Z,7.20
2019-03-16T11:36:28.806Z,7.20
2019-03-16T11:39:10.733Z,7.20
2019-03-16T11:41:52.041Z,7.20
2019-03-16T11:44:33.400Z,7.30
2019-03-16T11:47:14.212Z,7.40
2019-03-16T11:49:43.165Z,7.20
2019-03-16T11:52:43.503Z,7.20
2019-03-16T11:55:21.165Z,7.30
2019-03-16T11:58:09.314Z,7.40
2019-03-16T12:00:57.495Z,7.50
2019-03-16T12:03:45.670Z,7.50
2019-03-16T12:06:33.783Z,7.50
2019-03-16T12:09:22.098Z,7.60
2019-03-16T12:12:10.385Z,7.50
2019-03-16T12:14:51.683Z,7.50
2019-03-16T12:17:32.767Z,7.60
2019-03-16T12:20:13.560Z,7.50
2019-03-16T12:22:54.594Z,7.70
2019-03-16T12:25:35.500Z,7.70
2019-03-16T12:28:16.293Z,7.90
2019-03-16T12:30:57.104Z,8.00
2019-03-16T12:33:37.963Z,8.10
2019-03-16T12:36:18.809Z,8.10
2019-03-16T12:38:59.502Z,8.20
2019-03-16T12:41:40.372Z,8.30
2019-03-16T12:46:57.502Z,8.60
2019-03-16T12:49:48.789Z,8.70
2019-03-16T12:52:37.019Z,8.80
2019-03-16T12:55:25.252Z,9.00
2019-03-16T12:58:13.436Z,9.00
2019-03-16T13:00:42.434Z,9.20
2019-03-16T13:03:30.610Z,9.40
2019-03-16T13:06:19.253Z,9.50
2019-03-16T13:09:08.757Z,9.70
2019-03-16T13:11:56.805Z,9.50
2019-03-16T13:17:36.746Z,9.50
2019-03-16T13:20:18.080Z,9.40
2019-03-16T13:22:58.814Z,9.50
2019-03-16T13:25:39.514Z,9.50
2019-03-16T13:28:26.979Z,9.50
2019-03-16T13:31:08.395Z,9.40
2019-03-16T13:33:49.939Z,9.50
2019-03-16T13:36:30.368Z,9.50
2019-03-16T13:39:11.355Z,9.50
2019-03-16T13:41:53.629Z,9.50
2019-03-16T13:44:34.704Z,9.50
2019-03-16T13:47:15.892Z,9.50
2019-03-16T13:49:56.348Z,9.70
2019-03-16T13:52:37.165Z,9.80
2019-03-16T13:55:18.331Z,9.80
2019-03-16T13:57:58.897Z,9.80
2019-03-16T14:00:39.580Z,9.80
2019-03-16T14:03:20.664Z,9.80
2019-03-16T14:06:04.288Z,9.90
2019-03-16T14:08:44.883Z,9.90
2019-03-16T14:11:25.322Z,9.90
2019-03-16T14:14:06.156Z,9.80
2019-03-16T14:16:46.782Z,9.90
2019-03-16T14:19:27.546Z,9.90
2019-03-16T14:22:08.259Z,10.10
2019-03-16T14:24:49.708Z,10.30
2019-03-16T14:27:31.128Z,10.30
2019-03-16T14:30:23.919Z,10.30
2019-03-16T14:32:54.234Z,10.50
2019-03-16T14:35:34.906Z,10.50
2019-03-16T14:38:15.707Z,10.50
2019-03-16T14:40:56.597Z,10.50
2019-03-16T14:43:37.334Z,10.60
2019-03-16T14:46:18.217Z,10.80
2019-03-16T14:48:59.033Z,10.90
2019-03-16T14:51:39.535Z,11.10
2019-03-16T14:54:20.771Z,11.10
2019-03-16T14:57:02.211Z,11.20
2019-03-16T14:59:42.853Z,11.30
2019-03-16T15:02:25.294Z,11.30
2019-03-16T15:05:06.017Z,11.40
2019-03-16T15:07:49.532Z,11.40
2019-03-16T15:10:29.422Z,11.60
2019-03-16T15:13:10.057Z,11.70
2019-03-16T15:15:50.958Z,11.60
2019-03-16T15:18:32.154Z,11.60
2019-03-16T15:21:13.337Z,11.70
2019-03-16T15:23:55.419Z,11.70
2019-03-16T15:32:50.696Z,11.80
2019-03-16T15:35:31.593Z,11.60
2019-03-16T15:38:12.474Z,11.50
2019-03-16T15:40:54.048Z,11.50
2019-03-16T15:43:22.998Z,11.50
2019-03-16T15:46:11.121Z,11.50
2019-03-16T15:48:59.282Z,11.40
2019-03-16T15:51:47.509Z,11.40
2019-03-16T15:54:35.760Z,11.30
2019-03-16T16:00:37.496Z,11.30
2019-03-16T16:03:09.094Z,11.30
2019-03-16T16:05:56.633Z,11.30
2019-03-16T16:08:44.718Z,11.30
2019-03-16T16:11:33.341Z,11.20
2019-03-16T16:14:02.463Z,11.30
2019-03-16T16:16:52.190Z,11.30
2019-03-16T16:19:40.464Z,11.40
2019-03-16T16:25:36.075Z,11.30
2019-03-16T16:28:24.167Z,11.30
2019-03-16T16:31:35.074Z,11.20
2019-03-16T16:34:42.724Z,11.20
2019-03-16T16:37:31.260Z,11.20
2019-03-16T16:40:19.361Z,11.30
2019-03-16T16:43:07.551Z,11.20
2019-03-16T16:45:55.744Z,11.20
2019-03-16T16:49:03.343Z,11.10
2019-03-16T16:51:53.548Z,11.10
2019-03-16T16:54:41.721Z,11.00
2019-03-16T16:57:49.113Z,10.90
2019-03-16T17:00:37.302Z,10.90
2019-03-16T17:03:25.342Z,11.00
2019-03-16T17:06:13.582Z,11.00
2019-03-16T17:08:55.166Z,11.00
2019-03-16T17:11:33.083Z,10.90
2019-03-16T17:14:21.278Z,11.00
2019-03-16T17:17:09.436Z,11.00
2019-03-16T17:22:57.255Z,10.90
2019-03-16T17:28:19.987Z,10.80
2019-03-16T17:31:10.192Z,10.80
2019-03-16T17:37:08.936Z,10.90
2019-03-16T17:39:57.124Z,10.90
2019-03-16T17:42:45.252Z,10.80
2019-03-16T17:45:33.354Z,10.90
2019-03-16T17:48:21.550Z,10.90
2019-03-16T17:51:29.841Z,11.00
2019-03-16T17:54:18.348Z,11.00
2019-03-16T17:57:06.519Z,11.10
2019-03-16T17:59:54.622Z,11.10
2019-03-16T18:02:51.335Z,11.10
2019-03-16T18:05:33.016Z,11.10
2019-03-16T18:08:21.301Z,11.10
2019-03-16T18:11:09.509Z,11.00
2019-03-16T18:13:57.788Z,11.10
2019-03-16T18:16:58.551Z,11.00
2019-03-16T18:22:31.503Z,11.00
2019-03-16T18:25:12.913Z,11.00
2019-03-16T18:28:21.653Z,10.90
2019-03-16T18:31:09.860Z,10.90
2019-03-16T18:33:58.117Z,10.90
2019-03-16T18:36:46.268Z,10.90
2019-03-16T18:39:34.501Z,10.90
2019-03-16T18:42:22.766Z,10.90
2019-03-16T18:45:11.905Z,10.90
2019-03-16T18:48:00.097Z,10.90
2019-03-16T18:50:48.270Z,10.80
2019-03-16T18:53:36.406Z,10.80
2019-03-16T18:56:24.493Z,10.80
2019-03-16T18:59:12.614Z,10.70
2019-03-16T19:02:00.817Z,10.60
2019-03-16T19:04:48.939Z,10.60
2019-03-16T19:07:37.070Z,10.60
2019-03-16T19:10:25.202Z,10.60
2019-03-16T19:13:13.296Z,10.60
2019-03-16T19:16:01.361Z,10.50
2019-03-16T19:18:49.470Z,10.50
2019-03-16T19:21:18.379Z,10.50
2019-03-16T19:23:59.734Z,10.40
2019-03-16T19:26:41.058Z,10.40
2019-03-16T19:29:22.008Z,10.40
2019-03-16T19:32:03.050Z,10.40
2019-03-16T19:34:44.249Z,10.40
2019-03-16T19:37:13.308Z,10.40
2019-03-16T19:40:01.446Z,10.40
2019-03-16T19:42:30.493Z,10.40
2019-03-16T19:44:59.517Z,10.40
2019-03-16T19:47:30.513Z,10.20
2019-03-16T19:49:59.664Z,10.20
2019-03-16T19:52:28.515Z,10.20
2019-03-16T19:54:57.694Z,10.20
2019-03-16T19:57:26.654Z,10.10
2019-03-16T19:59:55.587Z,10.10
2019-03-16T20:02:24.397Z,10.10
2019-03-16T20:04:53.447Z,10.10
2019-03-16T20:07:23.174Z,10.10
2019-03-16T20:09:52.221Z,10.10
2019-03-16T20:12:23.379Z,10.00
2019-03-16T20:14:52.347Z,10.10
2019-03-16T20:17:21.317Z,10.00
2019-03-16T20:19:50.249Z,10.00
2019-03-16T20:22:19.050Z,9.90
2019-03-16T20:24:51.344Z,10.00
2019-03-16T20:27:23.133Z,9.90
2019-03-16T20:29:52.161Z,9.90
2019-03-16T20:32:20.989Z,10.00
2019-03-16T20:34:52.124Z,9.90
2019-03-16T20:37:21.065Z,10.00
2019-03-16T20:39:49.910Z,10.00
2019-03-16T20:42:18.745Z,10.00
2019-03-16T20:44:49.326Z,10.00
2019-03-16T20:47:18.326Z,10.00
2019-03-16T20:49:47.232Z,10.10
2019-03-16T20:52:16.100Z,10.10
2019-03-16T20:54:45.001Z,10.10
2019-03-16T20:57:14.003Z,10.10
2019-03-16T20:59:42.937Z,10.20
2019-03-16T21:02:11.923Z,10.20
2019-03-16T21:04:40.911Z,10.10
2019-03-16T21:07:09.827Z,10.20
2019-03-16T21:09:38.762Z,10.20
2019-03-16T21:12:07.650Z,10.20
2019-03-16T21:14:36.606Z,10.20
2019-03-16T21:17:05.694Z,10.20
2019-03-16T21:19:34.590Z,10.10
2019-03-16T21:22:03.479Z,10.10
2019-03-16T21:24:32.456Z,10.10
2019-03-16T21:27:01.335Z,10.10
2019-03-16T21:29:30.367Z,10.10
2019-03-16T21:31:59.292Z,10.00
2019-03-16T21:34:28.339Z,10.00
2019-03-16T21:36:57.247Z,9.90
2019-03-16T21:39:26.234Z,10.10
2019-03-16T21:41:55.138Z,10.10
2019-03-16T21:44:24.017Z,10.00
2019-03-16T21:46:54.051Z,10.10
2019-03-16T21:49:23.065Z,10.00
2019-03-16T21:51:52.060Z,9.90
2019-03-16T21:54:23.156Z,9.90
2019-03-16T21:56:52.277Z,9.90
2019-03-16T21:59:21.197Z,9.90
2019-03-16T22:01:50.162Z,9.90
2019-03-16T22:04:19.053Z,9.90
2019-03-16T22:06:47.989Z,9.80
2019-03-16T22:09:16.810Z,9.90
2019-03-16T22:11:45.721Z,9.90
2019-03-16T22:14:14.547Z,9.80
2019-03-16T22:16:43.431Z,9.80
2019-03-16T22:19:12.271Z,9.90
2019-03-16T22:21:41.944Z,9.90
2019-03-16T22:24:10.768Z,9.90
2019-03-16T22:26:39.821Z,9.90
2019-03-16T22:29:08.724Z,9.90
2019-03-16T22:31:37.597Z,10.00
2019-03-16T22:34:06.457Z,9.90
2019-03-16T22:36:35.285Z,9.90
2019-03-16T22:39:07.014Z,9.80
2019-03-16T22:41:35.973Z,9.80
2019-03-16T22:44:04.984Z,9.70
2019-03-16T22:46:33.875Z,9.80
2019-03-16T22:49:02.723Z,9.80
2019-03-16T22:51:31.692Z,9.80
2019-03-16T22:54:01.785Z,9.70
2019-03-16T22:56:30.618Z,9.70
2019-03-16T22:58:59.568Z,9.60
2019-03-16T23:01:28.564Z,9.70
2019-03-16T23:04:06.200Z,9.60
2019-03-16T23:06:28.075Z,9.60
2019-03-16T23:08:56.969Z,9.60
2019-03-16T23:11:25.889Z,9.50
2019-03-16T23:13:54.745Z,9.50
2019-03-16T23:16:23.720Z,9.40
2019-03-16T23:18:52.729Z,9.50
2019-03-16T23:21:21.638Z,9.40
2019-03-16T23:23:50.528Z,9.40
2019-03-16T23:26:19.328Z,9.50
2019-03-16T23:28:48.208Z,9.40
2019-03-16T23:31:17.013Z,9.40
2019-03-16T23:33:45.843Z,9.40
2019-03-16T23:36:14.653Z,9.30
2019-03-16T23:38:43.507Z,9.20
2019-03-16T23:41:12.365Z,9.20
2019-03-16T23:43:41.293Z,9.20
2019-03-16T23:46:10.093Z,9.20
2019-03-16T23:48:38.947Z,9.30
2019-03-16T23:51:07.834Z,9.30
2019-03-16T23:53:36.702Z,9.30
2019-03-16T23:56:05.544Z,9.20
2019-03-16T23:58:34.335Z,9.20
